Time;durP1;ratioP1;P1;durP2;ratioP2;P2;SDS_P1;SDS_P2;PMS_P1;PMS_P2;Temp;Humidity;BMP_temperature;BMP_pressure;BME280_temperature;BME280_humidity;BME280_pressure;Samples;Min_cycle;Max_cycle;Signal;HPM_P1;HPM_P2
2024/01/06 00:00:29;;;;;;;27.58;24.67;;;;;;;6.09;100.00;100243.94;5107114;28;20583;-83
2024/01/06 00:02:55;;;;;;;26.73;23.92;;;;;;;6.08;100.00;100249.25;5090013;28;20075;-83
2024/01/06 00:05:20;;;;;;;26.75;23.80;;;;;;;6.06;100.00;100257.19;5121137;28;20515;-83
2024/01/06 00:07:46;;;;;;;27.83;23.40;;;;;;;6.03;100.00;100260.00;5124672;28;20077;-83
2024/01/06 00:10:11;;;;;;;24.20;21.65;;;;;;;5.98;100.00;100262.88;5108551;28;20407;-83
2024/01/06 00:12:36;;;;;;;23.75;21.33;;;;;;;5.97;100.00;100271.63;5108467;28;20020;-83
2024/01/06 00:15:03;;;;;;;24.83;21.65;;;;;;;5.93;100.00;100275.38;5108507;28;20041;-83
2024/01/06 00:17:28;;;;;;;22.20;19.90;;;;;;;5.93;100.00;100279.78;5106667;28;20031;-83
2024/01/06 00:19:54;;;;;;;24.10;21.10;;;;;;;5.92;100.00;100284.16;5110257;28;20545;-83
2024/01/06 00:22:20;;;;;;;23.60;21.23;;;;;;;5.89;100.00;100286.97;5122893;28;20027;-83
2024/01/06 00:24:45;;;;;;;23.58;21.17;;;;;;;5.91;100.00;100289.47;5107968;28;20026;-83
2024/01/06 00:27:11;;;;;;;26.00;23.20;;;;;;;5.85;100.00;100288.06;5119540;28;20042;-83
2024/01/06 00:29:36;;;;;;;25.20;22.35;;;;;;;5.86;100.00;100288.91;5108043;28;20025;-83
2024/01/06 00:32:02;;;;;;;24.63;22.13;;;;;;;5.84;100.00;100290.78;5098956;28;20399;-83
2024/01/06 00:34:27;;;;;;;28.00;24.35;;;;;;;5.77;100.00;100292.94;5103100;27;20475;-83
2024/01/06 00:36:53;;;;;;;27.65;24.73;;;;;;;5.77;100.00;100294.72;5098637;28;20027;-83
2024/01/06 00:39:20;;;;;;;27.00;24.10;;;;;;;5.73;100.00;100301.91;5107896;27;20083;-83
2024/01/06 00:41:46;;;;;;;27.70;24.80;;;;;;;5.69;100.00;100303.03;5130563;27;20181;-83
2024/01/06 00:44:11;;;;;;;28.13;25.13;;;;;;;5.62;100.00;100297.34;5110747;27;20050;-83
2024/01/06 00:46:36;;;;;;;29.10;26.02;;;;;;;5.63;100.00;100301.63;5112434;27;20019;-83
2024/01/06 00:49:02;;;;;;;29.55;26.45;;;;;;;5.57;100.00;100299.38;5112499;27;20023;-82
2024/01/06 00:51:27;;;;;;;32.30;26.83;;;;;;;5.60;100.00;100306.19;5112079;27;20118;-82
2024/01/06 00:53:53;;;;;;;30.63;27.23;;;;;;;5.54;100.00;100307.41;5125394;27;20042;-82
2024/01/06 00:56:18;;;;;;;30.55;27.25;;;;;;;5.52;100.00;100308.44;5092051;28;20026;-82
2024/01/06 00:58:44;;;;;;;29.63;26.42;;;;;;;5.51;100.00;100309.38;5129220;27;20498;-82
2024/01/06 01:01:09;;;;;;;29.00;25.77;;;;;;;5.46;100.00;100307.03;5107689;27;20106;-82
2024/01/06 01:03:34;;;;;;;29.45;25.58;;;;;;;5.43;100.00;100317.66;5101736;27;20019;-82
2024/01/06 01:06:00;;;;;;;28.88;25.48;;;;;;;5.41;100.00;100327.34;5111749;27;20031;-82
2024/01/06 01:08:25;;;;;;;31.58;26.42;;;;;;;5.35;100.00;100322.53;5106716;27;20027;-82
2024/01/06 01:10:51;;;;;;;30.77;25.58;;;;;;;5.33;100.00;100327.00;5110936;27;20054;-82
2024/01/06 01:13:16;;;;;;;31.00;26.30;;;;;;;5.35;100.00;100322.53;5097135;27;20124;-83
2024/01/06 01:15:42;;;;;;;31.17;26.23;;;;;;;5.28;100.00;100324.66;5092940;28;20173;-83
2024/01/06 01:18:07;;;;;;;29.55;26.27;;;;;;;5.28;100.00;100326.44;5110876;28;20035;-82
2024/01/06 01:20:32;;;;;;;29.95;26.60;;;;;;;5.23;100.00;100333.72;5115924;27;20065;-83
2024/01/06 01:23:01;;;;;;;29.95;26.10;;;;;;;5.19;100.00;100327.81;5125444;27;20023;-83
2024/01/06 01:25:26;;;;;;;29.27;25.65;;;;;;;5.14;100.00;100329.00;5112205;27;20023;-83
2024/01/06 01:27:51;;;;;;;29.65;25.50;;;;;;;5.09;100.00;100331.06;5132456;27;20030;-83
2024/01/06 01:30:17;;;;;;;30.27;25.98;;;;;;;5.07;100.00;100332.94;5131945;27;20298;-83
2024/01/06 01:32:42;;;;;;;29.80;25.55;;;;;;;5.02;100.00;100346.22;5131094;27;20038;-83
2024/01/06 01:35:08;;;;;;;29.40;26.05;;;;;;;5.02;100.00;100347.06;5121326;27;20102;-83
2024/01/06 01:37:33;;;;;;;30.00;26.60;;;;;;;5.00;100.00;100354.16;5111223;28;20581;-83
2024/01/06 01:39:58;;;;;;;32.78;27.55;;;;;;;5.02;100.00;100357.50;5121309;27;20027;-82
2024/01/06 01:42:23;;;;;;;29.45;26.10;;;;;;;5.03;100.00;100351.34;5112814;27;20012;-83
2024/01/06 01:44:49;;;;;;;30.70;25.92;;;;;;;5.06;100.00;100357.31;5108542;28;20080;-83
2024/01/06 01:47:18;;;;;;;30.10;25.95;;;;;;;5.05;100.00;100366.91;5110733;27;20061;-83
2024/01/06 01:49:47;;;;;;;29.38;26.15;;;;;;;5.04;100.00;100371.28;5113050;27;20491;-83
2024/01/06 01:52:13;;;;;;;29.10;25.70;;;;;;;5.08;100.00;100365.88;5128920;27;20038;-83
2024/01/06 01:54:40;;;;;;;28.55;25.25;;;;;;;5.04;100.00;100371.28;5127064;27;20259;-83
2024/01/06 01:57:06;;;;;;;28.15;25.10;;;;;;;5.04;100.00;100378.25;5119233;27;20092;-83
2024/01/06 01:59:32;;;;;;;28.73;25.42;;;;;;;5.04;100.00;100379.09;5104849;28;20020;-83
2024/01/06 02:01:58;;;;;;;28.17;24.92;;;;;;;5.06;100.00;100383.38;5111632;27;20103;-83
2024/01/06 02:04:23;;;;;;;28.73;25.63;;;;;;;5.04;100.00;100373.06;5130562;27;20081;-83
2024/01/06 02:06:49;;;;;;;28.27;25.15;;;;;;;5.07;100.00;100379.84;5129611;27;20023;-83
2024/01/06 02:09:15;;;;;;;26.30;23.30;;;;;;;5.01;100.00;100381.91;5123138;27;20759;-83
2024/01/06 02:11:40;;;;;;;25.15;22.45;;;;;;;5.00;100.00;100377.59;5111336;27;20145;-83
2024/01/06 02:14:06;;;;;;;24.27;21.55;;;;;;;4.97;100.00;100380.41;5110183;27;20114;-83
2024/01/06 02:16:31;;;;;;;25.15;22.52;;;;;;;4.95;100.00;100384.03;5127054;27;20471;-83
2024/01/06 02:18:58;;;;;;;23.70;21.20;;;;;;;4.91;100.00;100391.19;5102256;28;20056;-83
2024/01/06 02:21:23;;;;;;;24.55;21.90;;;;;;;4.93;100.00;100394.53;5124241;27;20111;-83
2024/01/06 02:23:49;;;;;;;24.17;21.63;;;;;;;4.91;100.00;100409.44;5093301;27;20462;-83
2024/01/06 02:26:16;;;;;;;23.67;21.38;;;;;;;4.90;100.00;100404.31;5111013;27;20505;-83
2024/01/06 02:28:44;;;;;;;23.38;20.98;;;;;;;4.87;100.00;100410.53;5127194;27;20135;-83
2024/01/06 02:31:10;;;;;;;21.38;19.35;;;;;;;4.81;100.00;100416.09;5129725;27;20023;-83
2024/01/06 02:33:36;;;;;;;21.13;19.02;;;;;;;4.79;100.00;100425.75;5127029;27;20027;-83
2024/01/06 02:36:01;;;;;;;20.67;18.67;;;;;;;4.79;100.00;100425.75;5098251;27;20034;-83
2024/01/06 02:38:26;;;;;;;18.50;16.80;;;;;;;4.78;100.00;100428.44;5112807;27;20023;-83
2024/01/06 02:40:51;;;;;;;18.90;17.10;;;;;;;4.73;100.00;100428.72;5129582;27;20481;-83
2024/01/06 02:43:17;;;;;;;15.45;14.10;;;;;;;4.67;100.00;100429.91;5109813;27;20062;-83
2024/01/06 02:45:42;;;;;;;14.15;12.75;;;;;;;4.67;100.00;100437.72;5103801;27;20087;-83
2024/01/06 02:48:08;;;;;;;14.68;13.38;;;;;;;4.64;100.00;100439.66;5110434;27;20011;-83
2024/01/06 02:50:33;;;;;;;14.48;13.07;;;;;;;4.63;100.00;100448.41;5106391;27;20023;-82
2024/01/06 02:52:58;;;;;;;15.63;14.07;;;;;;;4.66;100.00;100448.22;5123926;27;20034;-82
2024/01/06 02:55:24;;;;;;;15.63;14.15;;;;;;;4.67;100.00;100453.34;5108109;28;20027;-82
2024/01/06 02:57:49;;;;;;;15.43;14.02;;;;;;;4.63;100.00;100454.44;5103909;27;20031;-83
2024/01/06 03:00:15;;;;;;;16.38;14.88;;;;;;;4.64;100.00;100463.09;5127514;27;20418;-83
2024/01/06 03:02:42;;;;;;;16.63;15.13;;;;;;;4.62;100.00;100468.41;5110415;27;20042;-82
2024/01/06 03:05:10;;;;;;;16.30;14.70;;;;;;;4.61;100.00;100476.31;5108339;28;20023;-83
2024/01/06 03:07:35;;;;;;;15.15;13.85;;;;;;;4.62;100.00;100483.19;5109834;27;20122;-82
2024/01/06 03:10:01;;;;;;;16.73;15.13;;;;;;;4.59;100.00;100488.56;5123004;27;20188;-83
2024/01/06 03:12:26;;;;;;;16.48;14.88;;;;;;;4.55;100.00;100490.50;5103977;28;20082;-83
2024/01/06 03:14:52;;;;;;;15.82;14.43;;;;;;;4.51;100.00;100496.81;5126594;27;20530;-83
2024/01/06 03:17:18;;;;;;;14.50;13.10;;;;;;;4.48;100.00;100496.16;5103593;28;20027;-83
2024/01/06 03:19:44;;;;;;;15.32;13.82;;;;;;;4.43;100.00;100498.16;5091445;28;20364;-83
2024/01/06 03:22:09;;;;;;;14.93;13.43;;;;;;;4.40;100.00;100502.63;5122962;27;20463;-83
2024/01/06 03:24:35;;;;;;;14.80;13.40;;;;;;;4.38;100.00;100501.81;5129213;27;20027;-83
2024/01/06 03:27:00;;;;;;;15.18;13.02;;;;;;;4.39;100.00;100508.72;5118905;27;20034;-83
2024/01/06 03:29:25;;;;;;;14.85;13.45;;;;;;;4.35;100.00;100509.81;5100291;28;20027;-83
2024/01/06 03:31:51;;;;;;;14.60;13.18;;;;;;;4.37;100.00;100509.72;5107592;28;20028;-83
2024/01/06 03:34:16;;;;;;;14.23;12.93;;;;;;;4.29;100.00;100517.94;5107978;28;20110;-83
2024/01/06 03:36:41;;;;;;;14.13;12.88;;;;;;;4.30;100.00;100524.84;5108091;28;20052;-83
2024/01/06 03:39:07;;;;;;;13.45;12.25;;;;;;;4.32;100.00;100516.94;5103214;27;20027;-81
2024/01/06 03:41:33;;;;;;;14.18;12.88;;;;;;;4.26;100.00;100525.94;5128268;27;20020;-81
2024/01/06 03:43:59;;;;;;;14.57;13.15;;;;;;;4.25;100.00;100526.84;5124932;27;20023;-82
2024/01/06 03:46:24;;;;;;;13.68;12.38;;;;;;;4.24;100.00;100534.75;5127703;27;20102;-81
2024/01/06 03:48:50;;;;;;;13.00;11.70;;;;;;;4.19;100.00;100535.00;5101621;28;20027;-81
2024/01/06 03:51:15;;;;;;;12.95;11.75;;;;;;;4.22;100.00;100532.22;5093980;28;20616;-81
2024/01/06 03:53:41;;;;;;;12.63;11.52;;;;;;;4.22;100.00;100541.78;5100544;28;20404;-81
2024/01/06 03:56:06;;;;;;;11.00;10.00;;;;;;;4.18;100.00;100541.13;5102007;28;20042;-82
2024/01/06 03:58:32;;;;;;;10.30;9.40;;;;;;;4.14;100.00;100539.59;5117450;28;20059;-81
2024/01/06 04:00:57;;;;;;;10.90;9.90;;;;;;;4.09;100.00;100536.41;5109082;28;20066;-81
2024/01/06 04:03:23;;;;;;;11.27;10.15;;;;;;;4.14;100.00;100539.59;5102892;28;20020;-81
2024/01/06 04:05:48;;;;;;;12.00;10.90;;;;;;;4.15;100.00;100537.84;5101307;28;20475;-81
2024/01/06 04:08:14;;;;;;;12.57;11.38;;;;;;;4.13;100.00;100542.28;5124557;27;20098;-81
2024/01/06 04:10:41;;;;;;;12.85;11.65;;;;;;;4.12;100.00;100549.25;5113830;27;20138;-81
2024/01/06 04:13:07;;;;;;;12.70;11.50;;;;;;;4.08;100.00;100555.53;5111681;28;20107;-81
2024/01/06 04:15:32;;;;;;;12.55;11.35;;;;;;;4.12;100.00;100546.66;5094629;28;20590;-81
2024/01/06 04:18:01;;;;;;;12.35;11.23;;;;;;;4.10;100.00;100553.69;5113091;28;20050;-81
2024/01/06 04:20:27;;;;;;;13.90;12.65;;;;;;;4.11;100.00;100551.94;5111811;27;20440;-81
2024/01/06 04:22:52;;;;;;;13.82;12.43;;;;;;;4.07;100.00;100554.69;5111186;27;20038;-81
2024/01/06 04:25:18;;;;;;;13.30;12.20;;;;;;;4.08;100.00;100555.53;5116490;27;20074;-81
2024/01/06 04:27:46;;;;;;;12.98;11.68;;;;;;;4.03;100.00;100562.75;5110375;27;20062;-81
2024/01/06 04:30:12;;;;;;;12.68;11.57;;;;;;;4.06;100.00;100562.59;5093863;27;20028;-81
2024/01/06 04:32:38;;;;;;;12.50;11.40;;;;;;;3.99;100.00;100562.03;5129702;27;20023;-81
2024/01/06 04:35:04;;;;;;;12.65;11.45;;;;;;;4.00;100.00;100568.09;5132195;27;20479;-81
2024/01/06 04:37:29;;;;;;;13.00;11.90;;;;;;;3.97;100.00;100568.25;5132463;27;20037;-81
2024/01/06 04:39:54;;;;;;;12.55;11.35;;;;;;;3.96;100.00;100572.63;5128116;27;20027;-81
2024/01/06 04:42:22;;;;;;;13.48;12.15;;;;;;;3.94;100.00;100577.06;5100465;28;20643;-81
2024/01/06 04:44:48;;;;;;;11.98;10.85;;;;;;;3.90;100.00;100579.91;5098809;27;20034;-81
2024/01/06 04:47:13;;;;;;;9.20;8.40;;;;;;;3.90;100.00;100578.13;5113510;27;20565;-82
2024/01/06 04:49:38;;;;;;;9.55;8.75;;;;;;;3.89;100.00;100584.25;5131198;27;20089;-82
2024/01/06 04:52:04;;;;;;;11.15;10.15;;;;;;;3.86;100.00;100592.22;5131270;27;20156;-82
2024/01/06 04:54:29;;;;;;;10.90;9.90;;;;;;;3.90;100.00;100592.91;5113351;27;20035;-82
2024/01/06 04:56:55;;;;;;;9.85;8.98;;;;;;;3.88;100.00;100599.94;5112360;27;20387;-82
2024/01/06 04:59:21;;;;;;;10.93;9.82;;;;;;;3.84;100.00;100598.44;5130195;27;20081;-82
2024/01/06 05:01:46;;;;;;;11.55;10.48;;;;;;;3.83;100.00;100609.75;5115220;27;20626;-82
2024/01/06 05:04:12;;;;;;;10.55;9.55;;;;;;;3.78;100.00;100607.38;5092736;28;20030;-83
2024/01/06 05:06:37;;;;;;;11.07;10.05;;;;;;;3.80;100.00;100607.31;5109277;27;20487;-82
2024/01/06 05:09:03;;;;;;;11.45;10.35;;;;;;;3.77;100.00;100610.91;5130193;27;20050;-82
2024/01/06 05:11:28;;;;;;;11.20;10.25;;;;;;;3.78;100.00;100615.19;5129869;27;20058;-82
2024/01/06 05:13:54;;;;;;;10.60;9.60;;;;;;;3.77;100.00;100619.56;5117972;27;20129;-82
2024/01/06 05:16:21;;;;;;;9.98;9.07;;;;;;;3.73;100.00;100623.22;5118039;27;20027;-83
2024/01/06 05:18:47;;;;;;;9.45;8.65;;;;;;;3.75;100.00;100626.59;5092815;28;20106;-82
2024/01/06 05:21:12;;;;;;;9.05;8.35;;;;;;;3.73;100.00;100624.97;5093552;28;20114;-82
2024/01/06 05:23:37;;;;;;;9.32;8.02;;;;;;;3.68;100.00;100625.22;5092619;28;20011;-82
2024/01/06 05:26:03;;;;;;;8.60;7.90;;;;;;;3.69;100.00;100631.25;5123225;27;20516;-81
2024/01/06 05:28:28;;;;;;;8.57;7.57;;;;;;;3.68;100.00;100626.97;5111876;27;20026;-81
2024/01/06 05:30:54;;;;;;;9.60;8.70;;;;;;;3.70;100.00;100639.00;5131262;27;20026;-82
2024/01/06 05:33:22;;;;;;;8.25;7.55;;;;;;;3.66;100.00;100640.06;5103555;28;20488;-81
2024/01/06 05:35:48;;;;;;;8.75;8.00;;;;;;;3.69;100.00;100634.69;5116506;27;20042;-82
2024/01/06 05:38:13;;;;;;;7.30;6.70;;;;;;;3.65;100.00;100640.97;5112465;27;20050;-82
2024/01/06 05:40:38;;;;;;;7.60;6.90;;;;;;;3.67;100.00;100646.09;5121691;27;20035;-81
2024/01/06 05:43:04;;;;;;;7.55;6.93;;;;;;;3.68;100.00;100645.19;5113294;27;20015;-82
2024/01/06 05:45:29;;;;;;;7.60;6.88;;;;;;;3.71;100.00;100650.22;5128896;27;20070;-82
2024/01/06 05:47:54;;;;;;;7.32;6.72;;;;;;;3.70;100.00;100658.97;5127498;27;20023;-82
2024/01/06 05:50:20;;;;;;;6.60;6.00;;;;;;;3.69;100.00;100660.72;5111630;27;20019;-82
2024/01/06 05:52:47;;;;;;;7.35;6.68;;;;;;;3.67;100.00;100659.94;5130774;27;20039;-81
2024/01/06 05:55:12;;;;;;;7.63;6.97;;;;;;;3.70;100.00;100670.22;5105205;28;20544;-82
2024/01/06 05:57:38;;;;;;;7.75;7.10;;;;;;;3.69;100.00;100668.53;5111525;27;20039;-82
2024/01/06 06:00:07;;;;;;;8.70;7.85;;;;;;;3.71;100.00;100665.84;5091794;27;20051;-82
2024/01/06 06:02:33;;;;;;;8.80;8.00;;;;;;;3.70;100.00;100678.00;5130203;27;20023;-82
2024/01/06 06:04:58;;;;;;;9.50;8.60;;;;;;;3.67;100.00;100674.72;5127040;27;20015;-82
2024/01/06 06:07:23;;;;;;;7.85;7.15;;;;;;;3.67;100.00;100680.75;5105808;28;20067;-82
2024/01/06 06:09:49;;;;;;;7.88;7.18;;;;;;;3.63;100.00;100678.38;5127428;27;20039;-82
2024/01/06 06:12:15;;;;;;;9.05;7.82;;;;;;;3.66;100.00;100686.88;5109242;27;20032;-82
2024/01/06 06:14:40;;;;;;;8.70;7.90;;;;;;;3.63;100.00;100686.19;5109671;27;20681;-82
2024/01/06 06:17:06;;;;;;;8.20;7.50;;;;;;;3.65;100.00;100693.00;5092317;28;20027;-82
2024/01/06 06:19:31;;;;;;;8.90;8.10;;;;;;;3.65;100.00;100703.41;5093062;27;20077;-81
2024/01/06 06:21:57;;;;;;;8.95;7.95;;;;;;;3.61;100.00;100696.66;5109879;28;20094;-82
2024/01/06 06:24:23;;;;;;;8.75;8.00;;;;;;;3.59;100.00;100703.69;5103041;27;20060;-82
2024/01/06 06:26:48;;;;;;;10.20;8.80;;;;;;;3.59;100.00;100708.88;5127502;27;20030;-82
2024/01/06 06:29:14;;;;;;;10.50;9.60;;;;;;;3.56;100.00;100714.22;5113488;27;20039;-82
2024/01/06 06:31:39;;;;;;;11.68;10.55;;;;;;;3.55;100.00;100720.34;5110595;27;20091;-82
2024/01/06 06:34:04;;;;;;;10.63;9.63;;;;;;;3.56;100.00;100718.59;5129128;27;20102;-82
2024/01/06 06:36:30;;;;;;;10.98;9.98;;;;;;;3.51;100.00;100725.75;5109718;27;20521;-81
2024/01/06 06:38:57;;;;;;;11.63;10.57;;;;;;;3.50;100.00;100732.72;5117302;27;20011;-81
2024/01/06 06:41:23;;;;;;;11.93;10.90;;;;;;;3.50;100.00;100734.47;5126744;27;20031;-81
2024/01/06 06:43:48;;;;;;;12.10;10.90;;;;;;;3.52;100.00;100727.44;5122823;27;20480;-81
2024/01/06 06:46:14;;;;;;;12.80;10.73;;;;;;;3.49;100.00;100731.03;5114615;27;20487;-81
2024/01/06 06:48:40;;;;;;;11.40;10.30;;;;;;;3.49;100.00;100738.84;5110267;27;20031;-82
2024/01/06 06:51:05;;;;;;;10.70;9.80;;;;;;;3.46;100.00;100741.59;5108324;27;20023;-81
2024/01/06 06:53:31;;;;;;;9.35;8.45;;;;;;;3.44;100.00;100746.00;5111891;27;20034;-82
2024/01/06 06:55:56;;;;;;;8.98;8.07;;;;;;;3.45;100.00;100747.72;5129741;27;20110;-81
2024/01/06 06:58:21;;;;;;;9.25;8.48;;;;;;;3.46;100.00;100759.78;5111159;27;20031;-81
2024/01/06 07:00:47;;;;;;;9.73;8.48;;;;;;;3.46;100.00;100765.00;5124436;27;20046;-81
2024/01/06 07:03:14;;;;;;;9.48;8.52;;;;;;;3.50;100.00;100766.53;5109104;28;20023;-81
2024/01/06 07:05:39;;;;;;;10.10;9.20;;;;;;;3.46;100.00;100771.03;5108159;28;20382;-82
2024/01/06 07:08:04;;;;;;;11.15;10.05;;;;;;;3.45;100.00;100774.56;5115245;27;20376;-82
2024/01/06 07:10:30;;;;;;;10.40;9.40;;;;;;;3.45;100.00;100784.13;5127432;27;20126;-82
2024/01/06 07:12:55;;;;;;;10.65;9.65;;;;;;;3.43;100.00;100780.75;5116862;27;20019;-82
2024/01/06 07:15:21;;;;;;;11.40;10.40;;;;;;;3.47;100.00;100792.69;5111332;27;20110;-82
2024/01/06 07:17:47;;;;;;;11.40;10.30;;;;;;;3.47;100.00;100790.94;5104210;27;20023;-82
2024/01/06 07:20:12;;;;;;;12.15;11.05;;;;;;;3.46;100.00;100798.81;5128871;27;20034;-82
2024/01/06 07:22:37;;;;;;;12.90;11.60;;;;;;;3.46;100.00;100797.03;5128407;27;20179;-82
2024/01/06 07:25:03;;;;;;;12.88;11.65;;;;;;;3.45;100.00;100799.72;5109949;27;20059;-82
2024/01/06 07:27:29;;;;;;;14.82;11.80;;;;;;;3.42;100.00;100800.69;5114207;27;20547;-82
2024/01/06 07:29:55;;;;;;;13.38;12.07;;;;;;;3.43;100.00;100807.59;5100295;27;20061;-83
2024/01/06 07:32:22;;;;;;;14.90;13.40;;;;;;;3.42;100.00;100805.06;5104355;27;20035;-82
2024/01/06 07:34:47;;;;;;;13.18;11.90;;;;;;;3.43;100.00;100806.75;5121053;27;20031;-83
2024/01/06 07:37:12;;;;;;;13.15;11.85;;;;;;;3.39;100.00;100811.25;5089380;28;20107;-82
2024/01/06 07:39:38;;;;;;;21.80;13.13;;;;;;;3.46;100.00;100810.06;5113286;27;20051;-82
2024/01/06 07:42:04;;;;;;;14.43;12.88;;;;;;;3.41;100.00;100803.38;5093830;28;20031;-82
2024/01/06 07:44:38;;;;;;;14.77;13.25;;;;;;;3.40;100.00;100814.69;5120092;27;20601;-82
2024/01/06 07:47:05;;;;;;;14.48;13.07;;;;;;;3.42;100.00;100815.47;5126467;27;20027;-82
2024/01/06 07:49:33;;;;;;;14.55;13.07;;;;;;;3.39;100.00;100820.81;5109500;27;20034;-83
2024/01/06 07:51:58;;;;;;;15.15;13.70;;;;;;;3.39;100.00;100824.25;5105942;28;20360;-83
2024/01/06 07:54:23;;;;;;;14.98;13.43;;;;;;;3.45;100.00;100833.53;5110637;28;20031;-82
2024/01/06 07:56:49;;;;;;;14.55;13.15;;;;;;;3.46;100.00;100836.06;5108355;28;20038;-82
2024/01/06 07:59:14;;;;;;;13.98;12.48;;;;;;;3.43;100.00;100830.16;5126485;28;20783;-83
2024/01/06 08:01:42;;;;;;;14.45;12.80;;;;;;;3.43;100.00;100840.56;5128963;28;20028;-83
2024/01/06 08:04:08;;;;;;;14.15;12.85;;;;;;;3.43;100.00;100837.94;5097793;28;20027;-83
2024/01/06 08:06:34;;;;;;;14.15;12.70;;;;;;;3.42;100.00;100836.25;5101880;28;20105;-83
2024/01/06 08:08:59;;;;;;;16.42;14.23;;;;;;;3.41;100.00;100844.97;5135243;27;20035;-83
2024/01/06 08:11:24;;;;;;;13.93;12.63;;;;;;;3.37;100.00;100857.28;5134626;27;20020;-83
2024/01/06 08:13:50;;;;;;;15.63;14.05;;;;;;;3.43;100.00;100863.97;5128839;28;20031;-83
2024/01/06 08:16:15;;;;;;;14.55;13.05;;;;;;;3.42;100.00;100867.47;5129078;28;20146;-83
2024/01/06 08:18:40;;;;;;;16.10;13.88;;;;;;;3.47;100.00;100875.91;5128316;28;20038;-83
2024/01/06 08:21:06;;;;;;;14.88;13.15;;;;;;;3.39;100.00;100876.25;5097179;28;20438;-83
2024/01/06 08:23:31;;;;;;;13.57;12.25;;;;;;;3.42;100.00;100880.47;5112682;27;20027;-83
2024/01/06 08:26:00;;;;;;;14.65;13.15;;;;;;;3.41;100.00;100881.38;5109428;28;20023;-83
2024/01/06 08:28:26;;;;;;;14.57;13.05;;;;;;;3.42;100.00;100880.47;5114118;28;20107;-83
2024/01/06 08:30:51;;;;;;;15.45;13.90;;;;;;;3.41;100.00;100890.03;5115135;28;20148;-83
2024/01/06 08:33:17;;;;;;;15.75;14.10;;;;;;;3.42;100.00;100893.47;5107978;27;20347;-84
2024/01/06 08:35:43;;;;;;;15.80;14.30;;;;;;;3.46;100.00;100895.03;5095887;28;20514;-83
2024/01/06 08:38:09;;;;;;;16.20;14.52;;;;;;;3.46;100.00;100897.63;5094590;28;20019;-83
2024/01/06 08:40:35;;;;;;;15.93;14.30;;;;;;;3.45;100.00;100904.59;5113701;28;20023;-83
2024/01/06 08:43:00;;;;;;;16.25;14.63;;;;;;;3.44;100.00;100907.25;5128689;28;20023;-83
2024/01/06 08:45:31;;;;;;;16.10;14.43;;;;;;;3.42;100.00;100914.28;5099496;28;20023;-83
2024/01/06 08:47:57;;;;;;;16.10;14.40;;;;;;;3.41;100.00;100917.81;5105879;28;20436;-83
2024/01/06 08:50:22;;;;;;;14.35;12.85;;;;;;;3.37;100.00;100921.44;5117096;27;20038;-83
2024/01/06 08:52:48;;;;;;;15.00;13.32;;;;;;;3.35;100.00;100931.06;5093967;27;20438;-83
2024/01/06 08:55:13;;;;;;;14.52;13.07;;;;;;;3.33;100.00;100938.94;5117972;27;20407;-83
2024/01/06 08:57:39;;;;;;;15.13;13.73;;;;;;;3.30;100.00;100935.63;5113082;27;20818;-82
2024/01/06 09:00:05;;;;;;;14.35;12.95;;;;;;;3.27;100.00;100941.81;5109386;28;20023;-82
2024/01/06 09:02:30;;;;;;;14.52;13.07;;;;;;;3.26;100.00;100945.31;5113694;27;20467;-83
2024/01/06 09:04:56;;;;;;;14.93;13.38;;;;;;;3.22;100.00;100941.16;5113663;27;20026;-82
2024/01/06 09:07:21;;;;;;;15.35;13.73;;;;;;;3.24;100.00;100952.34;5112467;27;20049;-82
2024/01/06 09:09:46;;;;;;;14.95;13.40;;;;;;;3.24;100.00;100954.09;5129379;27;20050;-79
2024/01/06 09:12:12;;;;;;;15.73;14.00;;;;;;;3.25;100.00;100958.38;5131136;27;20502;-78
2024/01/06 09:14:37;;;;;;;15.65;14.07;;;;;;;3.25;100.00;100960.97;5107765;27;20567;-82
2024/01/06 09:17:04;;;;;;;23.10;13.48;;;;;;;3.30;100.00;100961.63;5103371;28;20026;-82
2024/01/06 09:19:30;;;;;;;25.98;14.43;;;;;;;3.26;100.00;100971.31;5120113;27;20428;-81
2024/01/06 09:21:55;;;;;;;16.42;14.80;;;;;;;3.24;100.00;100959.28;5100343;27;20020;-81
2024/01/06 09:24:21;;;;;;;16.23;14.40;;;;;;;3.28;100.00;100979.03;5129281;27;20030;-81
2024/01/06 09:26:46;;;;;;;15.70;14.15;;;;;;;3.27;100.00;100982.56;5113094;27;20186;-83
2024/01/06 09:29:12;;;;;;;16.60;14.52;;;;;;;3.27;100.00;100977.34;5093505;27;20130;-82
2024/01/06 09:31:37;;;;;;;15.35;13.85;;;;;;;3.22;100.00;100976.72;5117498;27;20601;-83
2024/01/06 09:34:03;;;;;;;15.55;13.93;;;;;;;3.22;100.00;100989.72;5109762;27;20038;-82
2024/01/06 09:36:30;;;;;;;15.35;13.75;;;;;;;3.19;100.00;100989.81;5096747;28;20049;-83
2024/01/06 09:38:55;;;;;;;16.20;14.18;;;;;;;3.21;100.00;100994.06;5101184;27;20019;-81
2024/01/06 09:41:21;;;;;;;15.38;13.77;;;;;;;3.19;100.00;100997.59;5122308;27;20084;-82
2024/01/06 09:43:47;;;;;;;15.98;14.27;;;;;;;3.25;100.00;100998.22;5122044;27;20840;-81
2024/01/06 09:46:29;;;;;;;15.50;13.95;;;;;;;3.29;100.00;101007.59;5125847;27;20127;-82
2024/01/06 09:48:56;;;;;;;15.75;14.20;;;;;;;3.23;100.00;101009.59;5113770;27;20088;-81
2024/01/06 09:51:22;;;;;;;17.85;14.15;;;;;;;3.22;100.00;101010.50;5102456;28;20411;-81
2024/01/06 09:53:50;;;;;;;14.82;13.32;;;;;;;3.23;100.00;101025.19;5100559;27;20023;-81
2024/01/06 09:56:17;;;;;;;14.13;12.73;;;;;;;3.28;100.00;101020.66;5092006;27;20063;-81
2024/01/06 09:58:44;;;;;;;13.82;12.45;;;;;;;3.24;100.00;101025.13;5091583;28;20076;-81
2024/01/06 10:01:11;;;;;;;12.98;11.70;;;;;;;3.24;100.00;101030.34;5110240;27;20027;-82
2024/01/06 10:03:37;;;;;;;13.40;12.00;;;;;;;3.29;100.00;101037.94;5092089;28;20235;-81
2024/01/06 10:06:03;;;;;;;12.35;11.05;;;;;;;3.28;100.00;101033.66;5110411;27;20059;-81
2024/01/06 10:08:29;;;;;;;12.70;11.40;;;;;;;3.27;100.00;101037.16;5119408;27;20468;-80
2024/01/06 10:10:55;;;;;;;12.68;11.48;;;;;;;3.29;100.00;101040.53;5092692;28;20646;-81
2024/01/06 10:13:20;;;;;;;12.10;10.90;;;;;;;3.32;100.00;101043.00;5124210;27;20110;-81
2024/01/06 10:15:49;;;;;;;13.65;12.25;;;;;;;3.33;100.00;101055.09;5126202;27;20505;-81
2024/01/06 10:18:14;;;;;;;13.15;11.85;;;;;;;3.33;100.00;101047.31;5125849;27;20023;-81
2024/01/06 10:20:40;;;;;;;11.60;10.50;;;;;;;3.31;100.00;101055.16;5106233;27;20023;-81
2024/01/06 10:23:06;;;;;;;14.90;12.20;;;;;;;3.34;100.00;101059.41;5098876;27;20491;-81
2024/01/06 10:25:35;;;;;;;12.55;11.25;;;;;;;3.34;100.00;101062.00;5099789;28;20023;-81
2024/01/06 10:28:03;;;;;;;13.38;12.00;;;;;;;3.35;100.00;101067.13;5097474;27;20107;-81
2024/01/06 10:30:28;;;;;;;12.80;11.30;;;;;;;3.37;100.00;101067.06;5100560;28;20088;-83
2024/01/06 10:32:54;;;;;;;12.50;11.30;;;;;;;3.39;100.00;101060.06;5091594;28;20015;-83
2024/01/06 10:35:20;;;;;;;12.95;11.45;;;;;;;3.40;100.00;101070.38;5090093;27;20028;-83
2024/01/06 10:37:46;;;;;;;12.18;11.07;;;;;;;3.38;100.00;101063.56;5097888;27;20016;-83
2024/01/06 10:40:14;;;;;;;12.77;11.48;;;;;;;3.39;100.00;101065.25;5113806;27;20120;-83
2024/01/06 10:42:41;;;;;;;13.35;12.05;;;;;;;3.41;100.00;101064.28;5097583;28;20559;-83
2024/01/06 10:45:09;;;;;;;13.32;11.63;;;;;;;3.37;100.00;101067.06;5116766;27;20019;-83
2024/01/06 10:47:35;;;;;;;13.43;11.68;;;;;;;3.40;100.00;101077.34;5080311;27;20035;-83
2024/01/06 10:50:01;;;;;;;13.43;11.20;;;;;;;3.36;100.00;101079.22;5127837;27;20112;-83
2024/01/06 10:52:28;;;;;;;12.60;11.32;;;;;;;3.34;100.00;101078.44;5129316;27;20470;-83
2024/01/06 10:54:58;;;;;;;12.38;11.05;;;;;;;3.34;100.00;101077.59;5103491;28;20028;-83
2024/01/06 10:57:24;;;;;;;12.73;11.43;;;;;;;3.38;100.00;101071.38;5118350;27;20061;-83
2024/01/06 10:59:51;;;;;;;13.32;11.80;;;;;;;3.39;100.00;101075.66;5097319;27;20431;-83
2024/01/06 11:02:17;;;;;;;12.75;11.32;;;;;;;3.42;100.00;101078.13;5117849;27;20107;-83
2024/01/06 11:04:47;;;;;;;13.07;10.80;;;;;;;3.39;100.00;101076.50;5119376;27;20171;-83